Time;durP1;ratioP1;P1;durP2;ratioP2;P2;SDS_P1;SDS_P2;PMS_P1;PMS_P2;Temp;Humidity;BMP_temperature;BMP_pressure;BME280_temperature;BME280_humidity;BME280_pressure;Samples;Min_cycle;Max_cycle;Signal;HPM_P1;HPM_P2
2023/05/01 00:01:00;;;;;;;2.55;1.40;;;;;;;;;;4941569;28;101535;-79
2023/05/01 00:03:26;;;;;;;3.15;1.40;;;;;;;;;;4943791;28;98757;-80
2023/05/01 00:06:00;;;;;;;5.82;1.83;;;;;;;;;;4943500;28;98979;-80
2023/05/01 00:08:27;;;;;;;4.47;1.52;;;;;;;;;;4942331;28;99707;-79
2023/05/01 00:10:53;;;;;;;3.38;1.60;;;;;;;;;;4942900;28;98623;-79
2023/05/01 00:13:21;;;;;;;3.92;1.50;;;;;;;;;;4932536;28;101853;-80
2023/05/01 00:15:48;;;;;;;4.32;1.50;;;;;;;;;;4946533;28;99745;-79
2023/05/01 00:18:15;;;;;;;4.32;1.55;;;;;;;;;;4943401;28;99272;-76
2023/05/01 00:20:42;;;;;;;3.88;1.35;;;;;;;;;;4943041;28;99105;-79
2023/05/01 00:23:08;;;;;;;4.55;1.50;;;;;;;;;;4943599;28;98910;-79
2023/05/01 00:25:35;;;;;;;4.22;1.50;;;;;;;;;;4928988;28;102085;-79
2023/05/01 00:28:02;;;;;;;4.18;1.55;;;;;;;;;;4927501;28;99152;-79
2023/05/01 00:30:28;;;;;;;4.63;1.60;;;;;;;;;;4946705;28;97897;-78
2023/05/01 00:32:54;;;;;;;6.25;1.83;;;;;;;;;;4946766;28;98781;-78
2023/05/01 00:35:21;;;;;;;6.03;1.70;;;;;;;;;;4950057;28;99266;-79
2023/05/01 00:37:48;;;;;;;6.32;1.80;;;;;;;;;;4945683;28;99710;-78
2023/05/01 00:40:14;;;;;;;6.47;1.60;;;;;;;;;;4944229;28;102794;-79
2023/05/01 00:42:40;;;;;;;4.40;1.50;;;;;;;;;;4946750;28;98882;-79
2023/05/01 00:45:07;;;;;;;4.65;1.60;;;;;;;;;;4928080;28;102523;-77
2023/05/01 00:47:34;;;;;;;5.72;1.70;;;;;;;;;;4945920;28;99200;-78
2023/05/01 00:50:02;;;;;;;3.75;1.40;;;;;;;;;;4944187;28;99189;-79
2023/05/01 00:52:28;;;;;;;5.32;1.70;;;;;;;;;;4945168;28;99074;-78
2023/05/01 00:54:56;;;;;;;5.20;1.75;;;;;;;;;;4946104;28;99386;-78
2023/05/01 00:57:22;;;;;;;;;;;;;;;;;;4947909;28;98544;-78
2023/05/01 00:59:49;;;;;;;4.57;1.50;;;;;;;;;;4929926;28;98522;-78
2023/05/01 01:02:15;;;;;;;4.35;1.42;;;;;;;;;;4912258;28;99689;-78
2023/05/01 01:04:45;;;;;;;4.60;1.52;;;;;;;;;;4946366;28;99547;-78
2023/05/01 01:07:23;;;;;;;3.13;1.50;;;;;;;;;;4945498;28;101059;-79
2023/05/01 01:10:01;;;;;;;4.07;1.40;;;;;;;;;;4946050;28;99018;-78
2023/05/01 01:12:34;;;;;;;4.88;1.58;;;;;;;;;;4945581;28;98930;-79
2023/05/01 01:15:10;;;;;;;3.00;1.40;;;;;;;;;;4927905;28;101719;-78
2023/05/01 01:17:52;;;;;;;4.15;1.50;;;;;;;;;;4940471;28;98932;-79
2023/05/01 01:20:43;;;;;;;3.85;1.60;;;;;;;;;;4942672;28;101637;-78
2023/05/01 01:23:09;;;;;;;3.60;1.75;;;;;;;;;;4946337;28;98665;-79
2023/05/01 01:25:55;;;;;;;4.55;1.60;;;;;;;;;;4943982;28;102068;-79
2023/05/01 01:28:41;;;;;;;4.47;1.85;;;;;;;;;;4944893;28;99887;-78
2023/05/01 01:31:17;;;;;;;4.60;1.90;;;;;;;;;;4945375;28;98892;-78
2023/05/01 01:33:53;;;;;;;4.90;1.70;;;;;;;;;;4944999;28;99092;-78
2023/05/01 01:36:38;;;;;;;4.72;1.63;;;;;;;;;;4945234;28;99540;-78
2023/05/01 01:39:09;;;;;;;3.17;1.70;;;;;;;;;;4949704;28;98821;-78
2023/05/01 01:41:37;;;;;;;4.30;1.75;;;;;;;;;;4943817;28;101958;-78
2023/05/01 01:44:13;;;;;;;3.40;1.58;;;;;;;;;;4946706;28;102154;-79
2023/05/01 01:46:41;;;;;;;5.93;1.67;;;;;;;;;;4944656;28;100425;-78
2023/05/01 01:49:12;;;;;;;4.72;1.70;;;;;;;;;;4943217;28;102029;-78
2023/05/01 01:51:40;;;;;;;3.08;1.60;;;;;;;;;;4943649;28;99038;-78
2023/05/01 01:54:08;;;;;;;4.22;1.90;;;;;;;;;;4944651;28;99573;-78
2023/05/01 01:56:36;;;;;;;4.05;1.70;;;;;;;;;;4934618;28;100181;-79
2023/05/01 01:59:03;;;;;;;3.70;1.75;;;;;;;;;;4928089;28;98722;-79
2023/05/01 02:01:31;;;;;;;5.57;1.80;;;;;;;;;;4943587;28;101983;-79
2023/05/01 02:03:58;;;;;;;4.82;2.05;;;;;;;;;;4944768;28;99041;-78
2023/05/01 02:06:26;;;;;;;4.32;1.80;;;;;;;;;;4947922;28;98540;-78
2023/05/01 02:08:53;;;;;;;;;;;;;;;;;;4944883;28;99756;-78
2023/05/01 02:11:20;;;;;;;5.25;2.10;;;;;;;;;;4927366;28;97856;-78
2023/05/01 02:13:48;;;;;;;5.68;1.70;;;;;;;;;;4943498;28;101548;-78
2023/05/01 02:16:15;;;;;;;4.15;1.83;;;;;;;;;;4926105;28;100631;-78
2023/05/01 02:18:44;;;;;;;4.93;1.92;;;;;;;;;;4944577;28;99756;-78
2023/05/01 02:21:11;;;;;;;3.20;1.60;;;;;;;;;;4943704;28;101003;-77
2023/05/01 02:23:37;;;;;;;4.70;1.70;;;;;;;;;;4924133;28;100467;-79
2023/05/01 02:26:05;;;;;;;4.07;1.70;;;;;;;;;;4945758;28;98624;-77
2023/05/01 02:28:33;;;;;;;3.95;1.50;;;;;;;;;;4950173;28;99269;-78
2023/05/01 02:31:00;;;;;;;5.10;1.80;;;;;;;;;;4945710;28;100927;-78
2023/05/01 02:33:27;;;;;;;3.10;1.48;;;;;;;;;;4941618;28;98900;-77
2023/05/01 02:35:53;;;;;;;3.60;1.60;;;;;;;;;;4949128;28;97997;-78
2023/05/01 02:38:20;;;;;;;4.63;1.50;;;;;;;;;;4942303;28;98566;-78
2023/05/01 02:40:49;;;;;;;3.65;1.70;;;;;;;;;;4943481;28;101190;-78
2023/05/01 02:43:18;;;;;;;3.30;1.52;;;;;;;;;;4943610;28;100294;-78
2023/05/01 02:45:46;;;;;;;4.20;1.70;;;;;;;;;;4943278;28;99056;-78
2023/05/01 02:48:15;;;;;;;3.75;1.90;;;;;;;;;;4929705;28;99814;-78
2023/05/01 02:50:43;;;;;;;4.40;1.90;;;;;;;;;;4926175;28;99329;-79
2023/05/01 02:53:10;;;;;;;;;;;;;;;;;;4942499;28;101320;-78
2023/05/01 02:55:47;;;;;;;4.30;1.70;;;;;;;;;;4944103;28;101431;-79
2023/05/01 02:58:17;;;;;;;5.78;1.90;;;;;;;;;;4943783;28;98790;-78
2023/05/01 03:00:44;;;;;;;6.35;1.80;;;;;;;;;;4941673;28;106627;-78
2023/05/01 03:03:11;;;;;;;4.97;1.73;;;;;;;;;;4944221;28;99856;-78
2023/05/01 03:05:38;;;;;;;4.22;1.85;;;;;;;;;;4943839;28;98955;-78
2023/05/01 03:08:05;;;;;;;5.38;1.77;;;;;;;;;;4943619;28;99751;-78
2023/05/01 03:10:32;;;;;;;5.50;2.00;;;;;;;;;;4946174;28;101423;-78
2023/05/01 03:12:59;;;;;;;4.72;1.90;;;;;;;;;;4944002;28;100500;-78
2023/05/01 03:15:25;;;;;;;4.45;1.90;;;;;;;;;;4943531;28;99179;-78
2023/05/01 03:17:52;;;;;;;4.68;1.92;;;;;;;;;;4943289;28;99100;-78
2023/05/01 03:20:19;;;;;;;4.97;1.77;;;;;;;;;;4942377;28;99196;-77
2023/05/01 03:22:45;;;;;;;4.50;1.85;;;;;;;;;;4941701;28;100113;-77
2023/05/01 03:25:12;;;;;;;7.55;2.38;;;;;;;;;;4942363;28;98224;-78
2023/05/01 03:27:39;;;;;;;6.03;2.15;;;;;;;;;;4943765;28;98487;-78
2023/05/01 03:30:08;;;;;;;4.88;2.00;;;;;;;;;;4941328;28;101552;-78
2023/05/01 03:32:38;;;;;;;5.75;2.22;;;;;;;;;;4944191;28;99373;-78
2023/05/01 03:35:10;;;;;;;5.30;2.08;;;;;;;;;;4941709;28;100432;-79
2023/05/01 03:37:37;;;;;;;6.40;2.15;;;;;;;;;;4941967;28;98600;-79
2023/05/01 03:40:03;;;;;;;5.53;1.92;;;;;;;;;;4941480;28;101521;-79
2023/05/01 03:42:56;;;;;;;5.10;1.90;;;;;;;;;;4905909;28;104068;-78
2023/05/01 03:45:23;;;;;;;5.05;1.95;;;;;;;;;;4942976;28;98812;-78
2023/05/01 03:47:50;;;;;;;3.58;1.83;;;;;;;;;;4941563;28;101399;-79
2023/05/01 03:50:16;;;;;;;5.32;2.03;;;;;;;;;;4942775;28;98322;-78
2023/05/01 03:52:47;;;;;;;4.43;1.60;;;;;;;;;;4936789;28;98785;-78
2023/05/01 03:55:13;;;;;;;4.43;1.80;;;;;;;;;;4928131;28;101428;-79
2023/05/01 03:57:41;;;;;;;;;;;;;;;;;;4925259;28;99742;-78
2023/05/01 04:00:10;;;;;;;4.90;1.98;;;;;;;;;;4943289;28;102180;-78
2023/05/01 04:02:44;;;;;;;4.90;1.90;;;;;;;;;;4941249;28;106805;-78
2023/05/01 04:05:17;;;;;;;3.45;1.70;;;;;;;;;;4925444;28;98947;-79
2023/05/01 04:07:48;;;;;;;5.32;1.80;;;;;;;;;;4924761;28;101367;-79
2023/05/01 04:10:16;;;;;;;5.20;2.00;;;;;;;;;;4942282;28;98978;-79
2023/05/01 04:12:50;;;;;;;5.70;1.77;;;;;;;;;;4928319;28;98973;-79
2023/05/01 04:15:17;;;;;;;3.95;1.75;;;;;;;;;;4947931;28;100209;-79
2023/05/01 04:17:44;;;;;;;5.57;2.08;;;;;;;;;;4948673;28;101911;-80
2023/05/01 04:20:11;;;;;;;3.97;1.55;;;;;;;;;;4947362;28;98925;-79
2023/05/01 04:22:39;;;;;;;4.35;1.83;;;;;;;;;;4928187;28;102475;-79
2023/05/01 04:25:07;;;;;;;4.15;1.70;;;;;;;;;;4945600;28;98587;-79
2023/05/01 04:27:34;;;;;;;3.65;1.80;;;;;;;;;;4945587;28;100795;-79
2023/05/01 04:30:01;;;;;;;4.03;1.73;;;;;;;;;;4947479;28;101460;-79
2023/05/01 04:32:29;;;;;;;3.83;1.80;;;;;;;;;;4946799;28;98966;-79
2023/05/01 04:34:55;;;;;;;3.35;1.98;;;;;;;;;;4952660;28;98719;-79
2023/05/01 04:37:22;;;;;;;5.03;1.90;;;;;;;;;;4949324;28;101665;-79
2023/05/01 04:39:49;;;;;;;6.20;2.10;;;;;;;;;;4950152;28;97954;-79
2023/05/01 04:42:17;;;;;;;5.60;1.90;;;;;;;;;;4944555;28;102105;-79
2023/05/01 04:44:44;;;;;;;5.07;1.80;;;;;;;;;;4928230;28;99079;-77
2023/05/01 04:47:11;;;;;;;4.40;1.80;;;;;;;;;;4944701;28;99885;-78
2023/05/01 04:49:38;;;;;;;4.07;1.80;;;;;;;;;;4944687;28;100559;-78
2023/05/01 04:52:04;;;;;;;5.63;2.00;;;;;;;;;;4929584;28;98811;-78
2023/05/01 04:54:44;;;;;;;5.03;2.05;;;;;;;;;;4928872;28;105154;-78
2023/05/01 04:57:10;;;;;;;4.75;1.67;;;;;;;;;;4944670;28;100856;-77
2023/05/01 04:59:39;;;;;;;5.18;1.95;;;;;;;;;;4948532;28;98844;-77
2023/05/01 05:02:07;;;;;;;4.50;1.60;;;;;;;;;;4945158;28;100451;-77
2023/05/01 05:04:34;;;;;;;5.90;2.30;;;;;;;;;;4942795;28;97888;-78
2023/05/01 05:07:01;;;;;;;5.60;1.98;;;;;;;;;;4943790;28;101532;-77
2023/05/01 05:09:47;;;;;;;5.18;1.80;;;;;;;;;;4943285;28;100646;-77
2023/05/01 05:12:13;;;;;;;6.57;2.00;;;;;;;;;;4944045;28;99267;-78
2023/05/01 05:14:40;;;;;;;6.65;2.08;;;;;;;;;;4927354;28;106271;-78
2023/05/01 05:17:07;;;;;;;5.95;2.00;;;;;;;;;;4941483;28;99070;-78
2023/05/01 05:19:34;;;;;;;7.93;1.98;;;;;;;;;;4956987;28;98901;-78
2023/05/01 05:22:01;;;;;;;6.93;1.90;;;;;;;;;;4920186;28;101246;-78
2023/05/01 05:24:31;;;;;;;5.45;2.13;;;;;;;;;;4950078;28;98920;-79
2023/05/01 05:26:57;;;;;;;;;;;;;;;;;;4934900;28;101954;-79
2023/05/01 05:29:24;;;;;;;4.93;1.92;;;;;;;;;;4934494;28;101446;-79
2023/05/01 05:31:51;;;;;;;4.28;1.90;;;;;;;;;;4955727;28;98700;-78
2023/05/01 05:34:18;;;;;;;4.82;1.98;;;;;;;;;;4961517;28;98873;-80
2023/05/01 05:36:44;;;;;;;6.07;2.10;;;;;;;;;;4962135;28;99468;-78
2023/05/01 05:39:12;;;;;;;4.22;1.83;;;;;;;;;;4946252;28;98640;-78
2023/05/01 05:41:39;;;;;;;;;;;;;;;;;;4947049;28;100273;-79
2023/05/01 05:44:06;;;;;;;5.10;1.88;;;;;;;;;;4965710;28;119938;-79
2023/05/01 05:46:33;;;;;;;8.32;2.13;;;;;;;;;;4929075;28;101477;-78
2023/05/01 05:48:59;;;;;;;5.63;2.13;;;;;;;;;;4948618;28;99546;-78
2023/05/01 05:51:28;;;;;;;5.75;2.30;;;;;;;;;;4934279;28;98513;-78
2023/05/01 05:53:55;;;;;;;5.43;2.03;;;;;;;;;;4930224;28;99957;-78
2023/05/01 05:56:23;;;;;;;5.25;2.13;;;;;;;;;;4929570;28;101424;-79
2023/05/01 05:58:50;;;;;;;6.65;2.47;;;;;;;;;;4948648;28;100654;-79
2023/05/01 06:01:18;;;;;;;8.50;2.63;;;;;;;;;;4931602;28;101436;-79
2023/05/01 06:03:44;;;;;;;7.65;2.80;;;;;;;;;;4949035;28;99810;-79
2023/05/01 06:06:11;;;;;;;8.40;2.78;;;;;;;;;;4947414;28;98925;-80
2023/05/01 06:08:38;;;;;;;9.80;2.97;;;;;;;;;;4943802;28;99163;-79
2023/05/01 06:11:08;;;;;;;9.10;2.95;;;;;;;;;;4939948;28;98870;-79
2023/05/01 06:13:36;;;;;;;7.45;2.35;;;;;;;;;;4943483;28;101080;-79
2023/05/01 06:16:03;;;;;;;5.93;2.40;;;;;;;;;;4926557;28;101719;-79
2023/05/01 06:18:29;;;;;;;9.45;2.97;;;;;;;;;;4946200;28;97790;-80
2023/05/01 06:20:57;;;;;;;9.43;2.90;;;;;;;;;;4959295;28;100948;-79
2023/05/01 06:23:23;;;;;;;8.85;2.70;;;;;;;;;;4929919;28;100017;-79
2023/05/01 06:26:12;;;;;;;9.27;2.75;;;;;;;;;;4931330;28;100071;-79
2023/05/01 06:28:39;;;;;;;9.27;2.80;;;;;;;;;;4928153;28;101872;-79
2023/05/01 06:31:06;;;;;;;7.80;2.67;;;;;;;;;;4943020;28;98611;-80
2023/05/01 06:33:37;;;;;;;7.80;3.03;;;;;;;;;;4941706;28;101186;-80
2023/05/01 06:36:27;;;;;;;8.65;2.90;;;;;;;;;;4923627;28;100058;-78
2023/05/01 06:38:54;;;;;;;8.25;2.90;;;;;;;;;;4944241;28;99652;-80
2023/05/01 06:41:21;;;;;;;8.52;3.33;;;;;;;;;;4942931;28;101477;-79
2023/05/01 06:43:48;;;;;;;7.18;2.80;;;;;;;;;;4942581;28;99412;-80
2023/05/01 06:46:15;;;;;;;9.80;3.03;;;;;;;;;;4942285;28;106286;-79
2023/05/01 06:48:42;;;;;;;9.38;3.00;;;;;;;;;;4947016;28;103473;-79
2023/05/01 06:51:14;;;;;;;7.30;2.85;;;;;;;;;;4940231;28;100745;-78
2023/05/01 06:53:41;;;;;;;9.05;2.97;;;;;;;;;;4936552;28;99711;-78
2023/05/01 06:56:13;;;;;;;10.05;3.08;;;;;;;;;;4996870;27;86711;-78
2023/05/01 06:58:40;;;;;;;8.95;3.17;;;;;;;;;;4987611;28;89958;-79
2023/05/01 07:01:06;;;;;;;8.68;3.25;;;;;;;;;;4988112;28;87898;-78
2023/05/01 07:03:33;;;;;;;10.68;3.00;;;;;;;;;;4987682;28;87336;-79
2023/05/01 07:06:00;;;;;;;7.38;3.35;;;;;;;;;;4985926;28;88952;-78
2023/05/01 07:08:27;;;;;;;8.13;3.10;;;;;;;;;;4986648;28;87501;-78
2023/05/01 07:10:53;;;;;;;10.43;3.17;;;;;;;;;;4993941;28;87147;-79
2023/05/01 07:13:20;;;;;;;9.27;3.13;;;;;;;;;;4960479;28;87157;-78
2023/05/01 07:15:47;;;;;;;15.63;4.05;;;;;;;;;;4983140;28;87392;-79
2023/05/01 07:18:14;;;;;;;6.57;2.20;;;;;;;;;;4975166;28;88299;-80
2023/05/01 07:20:40;;;;;;;7.13;2.33;;;;;;;;;;4984999;28;90618;-78
2023/05/01 07:23:08;;;;;;;7.82;2.70;;;;;;;;;;4986271;28;87226;-79
2023/05/01 07:25:40;;;;;;;5.68;2.67;;;;;;;;;;4982788;28;87612;-79
2023/05/01 07:28:07;;;;;;;6.57;2.47;;;;;;;;;;4974329;28;86982;-79
2023/05/01 07:30:35;;;;;;;9.00;3.13;;;;;;;;;;4986897;28;87285;-78
2023/05/01 07:33:01;;;;;;;8.23;2.50;;;;;;;;;;4987470;28;87400;-80
2023/05/01 07:35:28;;;;;;;6.10;2.45;;;;;;;;;;4986463;28;89218;-80
2023/05/01 07:37:55;;;;;;;8.60;2.88;;;;;;;;;;4976494;28;87383;-79
2023/05/01 07:40:21;;;;;;;8.68;3.30;;;;;;;;;;4967715;28;86851;-78
2023/05/01 07:42:48;;;;;;;8.25;2.38;;;;;;;;;;4988044;28;87434;-79
2023/05/01 07:45:14;;;;;;;7.13;2.65;;;;;;;;;;4974039;28;87243;-79
2023/05/01 07:47:41;;;;;;;7.80;3.03;;;;;;;;;;4980572;28;86887;-79
2023/05/01 07:50:08;;;;;;;7.40;2.25;;;;;;;;;;4991407;28;88347;-80
2023/05/01 07:52:36;;;;;;;7.05;2.30;;;;;;;;;;4986641;28;88375;-81
2023/05/01 07:55:03;;;;;;;6.43;2.40;;;;;;;;;;4970962;28;86981;-79
2023/05/01 07:57:32;;;;;;;7.40;2.72;;;;;;;;;;4982814;28;90101;-79
2023/05/01 07:59:58;;;;;;;5.55;2.38;;;;;;;;;;4957168;28;90703;-79
2023/05/01 08:02:25;;;;;;;8.60;2.50;;;;;;;;;;4983895;28;87761;-80
2023/05/01 08:04:52;;;;;;;6.35;2.25;;;;;;;;;;4972408;28;87247;-81
2023/05/01 08:07:18;;;;;;;6.00;2.33;;;;;;;;;;4963200;28;87759;-80
2023/05/01 08:09:45;;;;;;;5.40;2.22;;;;;;;;;;4964589;28;87352;-80
2023/05/01 08:12:12;;;;;;;6.00;2.38;;;;;;;;;;4973402;28;87194;-79
2023/05/01 08:14:38;;;;;;;5.10;2.25;;;;;;;;;;4971798;28;87191;-80
2023/05/01 08:17:05;;;;;;;6.13;2.13;;;;;;;;;;4970957;28;87268;-80
2023/05/01 08:19:32;;;;;;;6.45;2.05;;;;;;;;;;4973843;28;86819;-81
2023/05/01 08:21:58;;;;;;;12.88;2.40;;;;;;;;;;4960175;28;88042;-81
2023/05/01 08:24:25;;;;;;;12.07;2.53;;;;;;;;;;4945039;28;86638;-81
2023/05/01 08:26:51;;;;;;;5.93;2.00;;;;;;;;;;4972715;28;86939;-81
2023/05/01 08:29:18;;;;;;;5.32;1.90;;;;;;;;;;4962037;28;87667;-82
2023/05/01 08:31:44;;;;;;;5.57;1.83;;;;;;;;;;4966762;28;87061;-83
2023/05/01 08:34:11;;;;;;;5.40;1.92;;;;;;;;;;4981993;28;87320;-82
2023/05/01 08:36:38;;;;;;;5.90;2.10;;;;;;;;;;4973154;28;86379;-82
2023/05/01 08:39:04;;;;;;;5.45;1.73;;;;;;;;;;4981420;28;87362;-82
2023/05/01 08:41:37;;;;;;;5.18;2.00;;;;;;;;;;4980006;28;87199;-81
2023/05/01 08:44:03;;;;;;;5.78;1.98;;;;;;;;;;4980814;28;88188;-83
2023/05/01 08:46:33;;;;;;;5.47;1.65;;;;;;;;;;4973590;28;87862;-83
2023/05/01 08:49:01;;;;;;;7.07;1.98;;;;;;;;;;4962335;28;86919;-83
2023/05/01 08:51:29;;;;;;;5.32;2.15;;;;;;;;;;4974578;28;87390;-82
2023/05/01 08:53:56;;;;;;;7.28;2.22;;;;;;;;;;4964260;28;86931;-82
2023/05/01 08:56:24;;;;;;;5.57;2.28;;;;;;;;;;4965374;28;87387;-82
2023/05/01 08:58:50;;;;;;;;;;;;;;;;;;4954303;28;87265;-82
2023/05/01 09:01:17;;;;;;;4.35;1.90;;;;;;;;;;4954392;28;100532;-80
2023/05/01 09:03:44;;;;;;;5.40;1.90;;;;;;;;;;4940079;28;88198;-81
2023/05/01 09:06:12;;;;;;;5.45;2.08;;;;;;;;;;4953459;28;86686;-82
2023/05/01 09:08:38;;;;;;;;;;;;;;;;;;4947006;28;90093;-82
2023/05/01 09:11:05;;;;;;;4.50;1.77;;;;;;;;;;4945100;28;106393;-80
2023/05/01 09:13:32;;;;;;;4.97;2.00;;;;;;;;;;4952873;28;87358;-80
2023/05/01 09:15:59;;;;;;;5.53;1.77;;;;;;;;;;4952626;28;87174;-82
2023/05/01 09:18:26;;;;;;;;;;;;;;;;;;4952875;28;88128;-82
2023/05/01 09:20:53;;;;;;;5.57;2.10;;;;;;;;;;4953218;28;89013;-82
2023/05/01 09:23:20;;;;;;;4.38;1.60;;;;;;;;;;4946002;28;87607;-81
2023/05/01 09:25:47;;;;;;;4.13;1.90;;;;;;;;;;4948108;28;87440;-81
2023/05/01 09:28:16;;;;;;;4.40;1.55;;;;;;;;;;4952323;28;87265;-81
2023/05/01 09:30:42;;;;;;;5.28;1.98;;;;;;;;;;4951726;28;88378;-82
2023/05/01 09:33:13;;;;;;;5.00;1.77;;;;;;;;;;4952405;28;88065;-82
2023/05/01 09:35:53;;;;;;;4.38;1.88;;;;;;;;;;4962037;28;86878;-83
2023/05/01 09:38:26;;;;;;;6.50;2.13;;;;;;;;;;4964017;28;87255;-82
2023/05/01 09:40:55;;;;;;;4.57;1.65;;;;;;;;;;4972133;28;88741;-82
2023/05/01 09:43:25;;;;;;;4.75;1.73;;;;;;;;;;4973555;28;87257;-82
2023/05/01 09:46:19;;;;;;;5.57;1.80;;;;;;;;;;4970538;28;87257;-81
2023/05/01 09:48:56;;;;;;;4.68;1.80;;;;;;;;;;4974412;28;90035;-81
2023/05/01 09:51:26;;;;;;;5.20;2.20;;;;;;;;;;4972714;28;87304;-82
2023/05/01 09:53:54;;;;;;;4.78;2.00;;;;;;;;;;4973228;28;90131;-82
2023/05/01 09:56:21;;;;;;;6.00;2.08;;;;;;;;;;4971562;28;87543;-82
2023/05/01 09:58:51;;;;;;;4.97;2.03;;;;;;;;;;4973141;28;87282;-79
2023/05/01 10:01:18;;;;;;;5.82;2.00;;;;;;;;;;4963516;28;88015;-80
2023/05/01 10:03:44;;;;;;;4.22;1.85;;;;;;;;;;4964473;28;87021;-80
2023/05/01 10:06:24;;;;;;;6.25;2.50;;;;;;;;;;4971511;28;89758;-86
2023/05/01 10:08:51;;;;;;;4.43;1.80;;;;;;;;;;4970313;28;90708;-81
2023/05/01 10:11:17;;;;;;;5.90;1.90;;;;;;;;;;4970598;28;88033;-80
2023/05/01 10:13:44;;;;;;;6.32;2.00;;;;;;;;;;4968323;28;87604;-80
2023/05/01 10:16:29;;;;;;;7.20;2.20;;;;;;;;;;4969879;28;86983;-80
2023/05/01 10:18:57;;;;;;;9.18;2.45;;;;;;;;;;4964110;28;92431;-81
2023/05/01 10:21:23;;;;;;;;;;;;;;;;;;4971249;28;87132;-81
2023/05/01 10:23:51;;;;;;;5.88;2.22;;;;;;;;;;4958980;28;87349;-80
2023/05/01 10:26:18;;;;;;;7.00;2.13;;;;;;;;;;4959052;28;87138;-80
2023/05/01 10:28:45;;;;;;;6.55;2.17;;;;;;;;;;4953288;28;86988;-80
2023/05/01 10:31:12;;;;;;;7.15;2.30;;;;;;;;;;4959240;28;87019;-81
2023/05/01 10:33:39;;;;;;;7.18;2.10;;;;;;;;;;4958788;28;88081;-81
2023/05/01 10:36:08;;;;;;;6.05;1.90;;;;;;;;;;4971631;28;86986;-81
2023/05/01 10:38:34;;;;;;;8.40;2.60;;;;;;;;;;4970445;28;87155;-80
2023/05/01 10:41:01;;;;;;;7.88;2.30;;;;;;;;;;4970580;28;89973;-80
2023/05/01 10:43:34;;;;;;;6.28;2.20;;;;;;;;;;4974312;28;87536;-83
2023/05/01 10:46:06;;;;;;;10.52;2.25;;;;;;;;;;4963584;28;89894;-82
2023/05/01 10:48:36;;;;;;;6.28;1.98;;;;;;;;;;4949491;28;89102;-79
2023/05/01 10:51:07;;;;;;;11.63;2.10;;;;;;;;;;4953710;28;89060;-82
2023/05/01 10:53:34;;;;;;;5.72;1.92;;;;;;;;;;4946353;28;88261;-80
2023/05/01 10:56:03;;;;;;;6.85;2.03;;;;;;;;;;4953727;28;89448;-80
2023/05/01 10:58:35;;;;;;;4.75;2.15;;;;;;;;;;4952344;28;87267;-80
2023/05/01 11:01:20;;;;;;;6.45;2.00;;;;;;;;;;4956177;28;87046;-80
2023/05/01 11:03:47;;;;;;;5.85;2.20;;;;;;;;;;4945078;28;89631;-81
2023/05/01 11:06:14;;;;;;;4.68;1.88;;;;;;;;;;4949496;28;87324;-82
2023/05/01 11:08:40;;;;;;;5.38;1.80;;;;;;;;;;4955543;28;92137;-82
2023/05/01 11:11:22;;;;;;;5.97;2.00;;;;;;;;;;4952034;28;88660;-82
2023/05/01 11:13:59;;;;;;;5.50;1.95;;;;;;;;;;4950047;28;89183;-82
2023/05/01 11:16:41;;;;;;;5.97;1.90;;;;;;;;;;4956027;28;89343;-82
2023/05/01 11:19:09;;;;;;;7.53;2.20;;;;;;;;;;4950409;28;88509;-82
2023/05/01 11:21:37;;;;;;;6.20;2.00;;;;;;;;;;4945735;28;88489;-82
2023/05/01 11:24:05;;;;;;;6.10;2.05;;;;;;;;;;4942275;28;88827;-81
2023/05/01 11:26:31;;;;;;;7.35;2.03;;;;;;;;;;4948349;28;88143;-81
2023/05/01 11:28:59;;;;;;;6.00;2.08;;;;;;;;;;4950109;28;89014;-82
2023/05/01 11:31:27;;;;;;;7.03;2.30;;;;;;;;;;4951370;28;89215;-82
2023/05/01 11:33:59;;;;;;;6.90;1.98;;;;;;;;;;4949611;28;88809;-80
2023/05/01 11:36:27;;;;;;;7.45;2.50;;;;;;;;;;4949169;28;88134;-82
2023/05/01 11:38:58;;;;;;;5.32;2.20;;;;;;;;;;4937013;28;92159;-83
2023/05/01 11:41:25;;;;;;;5.28;1.80;;;;;;;;;;4948388;28;92808;-82
2023/05/01 11:43:52;;;;;;;7.10;2.00;;;;;;;;;;4951010;28;89316;-81
2023/05/01 11:46:28;;;;;;;9.77;2.10;;;;;;;;;;4960290;28;88503;-81
2023/05/01 11:48:55;;;;;;;4.13;1.80;;;;;;;;;;4969743;28;89098;-81
2023/05/01 11:51:23;;;;;;;6.35;1.90;;;;;;;;;;4951222;28;89296;-81
2023/05/01 11:54:06;;;;;;;6.15;1.80;;;;;;;;;;4958702;28;88571;-81
2023/05/01 11:56:33;;;;;;;6.43;2.00;;;;;;;;;;4969571;28;87417;-83
2023/05/01 11:59:16;;;;;;;4.10;1.60;;;;;;;;;;4953797;28;88809;-83
2023/05/01 12:01:44;;;;;;;6.30;2.00;;;;;;;;;;4958609;28;88118;-83
2023/05/01 12:04:11;;;;;;;6.20;1.67;;;;;;;;;;4953245;28;89332;-83
2023/05/01 12:06:44;;;;;;;5.05;1.70;;;;;;;;;;4946118;28;88658;-83
2023/05/01 12:09:11;;;;;;;5.70;1.95;;;;;;;;;;4952038;28;91560;-84
2023/05/01 12:11:38;;;;;;;6.55;1.70;;;;;;;;;;4956971;28;88623;-83
2023/05/01 12:14:05;;;;;;;6.32;1.80;;;;;;;;;;4962632;28;88481;-83
2023/05/01 12:16:32;;;;;;;7.50;1.70;;;;;;;;;;4962530;28;88370;-82
2023/05/01 12:18:58;;;;;;;;;;;;;;;;;;4970765;28;89162;-81
2023/05/01 12:21:26;;;;;;;6.18;1.98;;;;;;;;;;4969560;28;88756;-82
2023/05/01 12:23:53;;;;;;;;;;;;;;;;;;4977368;28;88101;-82
2023/05/01 12:26:26;;;;;;;9.15;2.42;;;;;;;;;;4956819;28;99828;-81
2023/05/01 12:28:54;;;;;;;11.20;3.35;;;;;;;;;;4957956;28;89152;-82
2023/05/01 12:31:21;;;;;;;9.20;3.55;;;;;;;;;;4959978;28;90199;-82
2023/05/01 12:33:51;;;;;;;6.60;2.72;;;;;;;;;;4967262;28;88930;-81
2023/05/01 12:36:19;;;;;;;6.22;1.90;;;;;;;;;;4968087;28;87905;-81
2023/05/01 12:38:54;;;;;;;7.38;2.20;;;;;;;;;;4965966;28;89234;-82
2023/05/01 12:41:30;;;;;;;10.23;3.58;;;;;;;;;;4956069;28;89170;-82
2023/05/01 12:43:57;;;;;;;9.02;3.67;;;;;;;;;;4963720;28;87984;-82
2023/05/01 12:46:23;;;;;;;8.80;2.90;;;;;;;;;;4966430;28;88014;-82
2023/05/01 12:48:50;;;;;;;8.23;3.00;;;;;;;;;;4952595;28;88233;-83
2023/05/01 12:51:19;;;;;;;7.20;2.30;;;;;;;;;;4959698;28;89764;-82
2023/05/01 12:53:46;;;;;;;7.03;2.55;;;;;;;;;;4961339;28;88821;-82
2023/05/01 12:56:23;;;;;;;6.53;2.53;;;;;;;;;;4955207;28;89152;-81
2023/05/01 12:58:52;;;;;;;6.80;2.00;;;;;;;;;;4972440;28;93290;-81
2023/05/01 13:01:23;;;;;;;6.25;2.03;;;;;;;;;;4969765;28;89503;-82
2023/05/01 13:03:50;;;;;;;5.50;2.13;;;;;;;;;;4971273;28;89159;-82
2023/05/01 13:06:17;;;;;;;8.35;2.15;;;;;;;;;;4956692;28;89012;-81
2023/05/01 13:08:43;;;;;;;5.95;1.98;;;;;;;;;;4952690;28;88198;-81
2023/05/01 13:11:12;;;;;;;5.95;2.08;;;;;;;;;;4951865;28;88296;-82
2023/05/01 13:13:39;;;;;;;5.60;1.98;;;;;;;;;;4956033;28;88160;-82
2023/05/01 13:16:11;;;;;;;5.45;2.00;;;;;;;;;;4950447;28;88219;-81
2023/05/01 13:18:51;;;;;;;5.97;1.90;;;;;;;;;;4950509;28;88752;-81
2023/05/01 13:21:19;;;;;;;5.20;1.70;;;;;;;;;;4954326;28;88680;-83
2023/05/01 13:23:53;;;;;;;7.75;2.00;;;;;;;;;;4967927;28;88601;-82
2023/05/01 13:26:34;;;;;;;7.22;2.20;;;;;;;;;;4974624;28;88899;-83
2023/05/01 13:29:02;;;;;;;9.00;2.20;;;;;;;;;;4987444;28;87940;-84
2023/05/01 13:31:29;;;;;;;11.50;2.15;;;;;;;;;;4987813;28;88019;-82
2023/05/01 13:33:59;;;;;;;9.45;2.10;;;;;;;;;;4974713;28;87840;-82
2023/05/01 13:36:31;;;;;;;9.98;2.42;;;;;;;;;;4964185;28;89771;-82
2023/05/01 13:38:58;;;;;;;8.65;2.45;;;;;;;;;;4960239;28;89012;-82
2023/05/01 13:41:25;;;;;;;7.43;2.75;;;;;;;;;;4965242;28;88453;-85
2023/05/01 13:43:53;;;;;;;7.78;2.58;;;;;;;;;;4963667;28;88672;-82
2023/05/01 13:46:20;;;;;;;9.95;3.00;;;;;;;;;;4959976;28;88195;-84
2023/05/01 13:48:48;;;;;;;8.68;3.33;;;;;;;;;;4964411;28;87917;-85
2023/05/01 13:51:19;;;;;;;8.57;2.50;;;;;;;;;;4963661;28;88937;-84
2023/05/01 13:53:45;;;;;;;7.15;2.53;;;;;;;;;;4954139;28;87998;-85
2023/05/01 13:56:12;;;;;;;8.23;2.63;;;;;;;;;;4956481;28;89231;-84
2023/05/01 13:58:39;;;;;;;8.02;2.75;;;;;;;;;;4956778;28;88690;-86
2023/05/01 14:01:13;;;;;;;6.32;2.55;;;;;;;;;;4952227;28;87636;-83
2023/05/01 14:03:41;;;;;;;7.97;2.65;;;;;;;;;;4952179;28;89197;-82
2023/05/01 14:06:14;;;;;;;6.55;2.88;;;;;;;;;;4951975;28;90969;-84
2023/05/01 14:08:45;;;;;;;6.85;2.83;;;;;;;;;;4954515;28;91603;-85
2023/05/01 14:11:13;;;;;;;11.25;3.03;;;;;;;;;;4951501;28;89251;-84
2023/05/01 14:13:40;;;;;;;7.47;2.70;;;;;;;;;;4956712;28;89197;-84
2023/05/01 14:16:10;;;;;;;8.10;2.70;;;;;;;;;;4951867;28;88496;-84
2023/05/01 14:18:43;;;;;;;8.15;2.83;;;;;;;;;;4948233;28;90144;-85
2023/05/01 14:21:11;;;;;;;7.70;2.90;;;;;;;;;;4957654;28;88754;-83
2023/05/01 14:23:38;;;;;;;7.93;2.70;;;;;;;;;;4960632;28;88413;-84
2023/05/01 14:26:07;;;;;;;6.95;2.53;;;;;;;;;;4943908;28;87265;-83
2023/05/01 14:28:38;;;;;;;7.43;2.53;;;;;;;;;;4953712;28;88556;-85
2023/05/01 14:31:04;;;;;;;7.05;2.40;;;;;;;;;;4947487;28;89442;-85
2023/05/01 14:33:32;;;;;;;5.63;2.22;;;;;;;;;;4960195;28;92067;-83
2023/05/01 14:35:58;;;;;;;;;;;;;;;;;;4974653;28;88331;-85
2023/05/01 14:38:26;;;;;;;5.60;1.85;;;;;;;;;;4971410;28;88154;-85
2023/05/01 14:40:53;;;;;;;4.93;2.00;;;;;;;;;;4963912;28;88405;-84
2023/05/01 14:43:21;;;;;;;8.35;2.25;;;;;;;;;;4977460;28;89015;-83
2023/05/01 14:45:51;;;;;;;7.93;2.08;;;;;;;;;;4971525;28;88545;-85
2023/05/01 14:48:27;;;;;;;5.90;2.13;;;;;;;;;;4970071;28;88266;-84
2023/05/01 14:50:54;;;;;;;6.25;1.80;;;;;;;;;;4959537;28;88296;-83
2023/05/01 14:53:21;;;;;;;5.88;1.80;;;;;;;;;;4975794;28;88524;-84